Time;durP1;ratioP1;P1;durP2;ratioP2;P2;SDS_P1;SDS_P2;PMS_P1;PMS_P2;Temp;Humidity;BMP_temperature;BMP_pressure;BME280_temperature;BME280_humidity;BME280_pressure;Samples;Min_cycle;Max_cycle;Signal;HPM_P1;HPM_P2
2023/06/13 00:00:54;;;;;;;6.85;2.90;;;12.40;65.40;;;;;;4847672;29;20037;-89
2023/06/13 00:03:22;;;;;;;5.78;2.35;;;12.40;65.20;;;;;;4847683;29;20076;-89
2023/06/13 00:05:51;;;;;;;5.60;2.42;;;12.50;65.00;;;;;;4847506;29;20053;-89
2023/06/13 00:08:18;;;;;;;7.10;2.47;;;12.50;64.40;;;;;;4863080;29;20073;-89
2023/06/13 00:10:46;;;;;;;7.70;2.40;;;12.50;64.90;;;;;;4847638;29;20053;-89
2023/06/13 00:13:15;;;;;;;5.95;2.17;;;12.50;65.40;;;;;;4862859;29;20385;-89
2023/06/13 00:15:50;;;;;;;6.28;2.53;;;12.40;65.10;;;;;;4847476;29;20096;-89
2023/06/13 00:18:19;;;;;;;5.72;2.00;;;12.40;65.50;;;;;;4862643;29;20056;-89
2023/06/13 00:20:47;;;;;;;6.50;2.30;;;12.30;65.20;;;;;;4862843;29;20045;-89
2023/06/13 00:23:15;;;;;;;6.40;2.83;;;12.20;65.50;;;;;;4847346;29;20078;-89
2023/06/13 00:25:43;;;;;;;5.65;2.28;;;12.00;65.70;;;;;;4847503;29;20063;-89
2023/06/13 00:28:10;;;;;;;7.28;2.28;;;12.00;66.00;;;;;;4862671;29;20074;-89
2023/06/13 00:30:37;;;;;;;6.18;2.10;;;12.00;65.20;;;;;;4862520;29;20539;-89
2023/06/13 00:33:07;;;;;;;6.85;2.58;;;12.00;65.70;;;;;;4847684;29;20069;-88
2023/06/13 00:35:35;;;;;;;6.53;2.40;;;12.00;65.80;;;;;;4865500;29;20085;-89
2023/06/13 00:38:06;;;;;;;7.40;2.50;;;12.00;65.70;;;;;;4847148;29;20517;-89
2023/06/13 00:40:35;;;;;;;7.85;2.35;;;12.00;65.70;;;;;;4846684;29;20070;-88
2023/06/13 00:43:02;;;;;;;5.38;2.15;;;11.90;65.40;;;;;;4847023;29;20440;-88
2023/06/13 00:45:31;;;;;;;5.90;2.78;;;11.90;65.50;;;;;;4847083;29;20056;-88
2023/06/13 00:48:02;;;;;;;6.77;2.37;;;11.80;66.00;;;;;;4862254;29;20060;-88
2023/06/13 00:50:33;;;;;;;7.15;2.92;;;11.80;66.00;;;;;;4862454;29;20096;-88
2023/06/13 00:53:03;;;;;;;6.70;2.45;;;11.80;66.10;;;;;;4862175;29;20144;-88
2023/06/13 00:55:31;;;;;;;5.97;2.17;;;11.80;66.30;;;;;;4849664;29;20113;-88
2023/06/13 00:58:06;;;;;;;8.27;2.30;;;11.80;66.30;;;;;;4865260;29;20075;-88
2023/06/13 01:00:38;;;;;;;6.47;2.40;;;11.70;66.80;;;;;;4865093;29;20499;-88
2023/06/13 01:03:15;;;;;;;5.70;2.28;;;11.50;67.20;;;;;;4846600;29;20052;-88
2023/06/13 01:05:44;;;;;;;6.35;2.20;;;11.50;67.30;;;;;;4861981;29;20049;-90
2023/06/13 01:08:16;;;;;;;6.47;2.25;;;11.40;67.50;;;;;;4864712;29;20049;-88
2023/06/13 01:10:52;;;;;;;6.75;2.40;;;11.40;67.70;;;;;;4865032;29;20057;-88
2023/06/13 01:13:34;;;;;;;5.37;2.13;;;11.20;67.70;;;;;;4861729;29;20077;-88
2023/06/13 01:16:07;;;;;;;6.30;2.35;;;11.20;67.20;;;;;;4864891;29;20060;-88
2023/06/13 01:18:41;;;;;;;7.32;2.30;;;11.20;67.30;;;;;;4849467;29;20504;-89
2023/06/13 01:21:11;;;;;;;5.43;2.10;;;11.20;67.60;;;;;;4864575;29;20041;-89
2023/06/13 01:23:39;;;;;;;5.13;2.28;;;11.10;68.10;;;;;;4849375;29;20077;-89
2023/06/13 01:26:43;;;;;;;6.13;2.30;;;11.00;68.60;;;;;;4864806;29;20045;-89
2023/06/13 01:29:11;;;;;;;5.50;1.95;;;11.00;68.40;;;;;;4846464;29;20496;-89
2023/06/13 01:31:40;;;;;;;8.43;2.25;;;11.00;68.80;;;;;;4864962;29;20083;-89
2023/06/13 01:34:12;;;;;;;5.80;2.20;;;11.00;68.50;;;;;;4861653;29;20109;-89
2023/06/13 01:36:39;;;;;;;6.47;2.30;;;11.00;68.40;;;;;;4861172;29;20052;-88
2023/06/13 01:39:07;;;;;;;6.87;2.40;;;11.00;68.60;;;;;;4861299;29;20077;-89
2023/06/13 01:41:34;;;;;;;5.05;2.20;;;11.00;68.30;;;;;;4846681;29;20102;-89
2023/06/13 01:44:04;;;;;;;6.75;2.13;;;11.10;68.30;;;;;;4846732;29;20466;-89
2023/06/13 01:46:44;;;;;;;6.03;2.13;;;11.00;68.60;;;;;;4845909;29;20080;-88
2023/06/13 01:49:24;;;;;;;5.72;2.47;;;11.00;68.70;;;;;;4846124;29;20148;-88
2023/06/13 01:52:00;;;;;;;4.80;1.93;;;10.90;69.00;;;;;;4812629;29;20064;-88
2023/06/13 01:54:32;;;;;;;6.22;2.30;;;10.80;68.80;;;;;;4846047;29;20479;-88
2023/06/13 01:57:05;;;;;;;8.32;2.78;;;10.70;68.80;;;;;;4846318;29;20052;-89
2023/06/13 01:59:33;;;;;;;5.97;2.38;;;10.80;68.60;;;;;;4845947;29;20449;-88
2023/06/13 02:02:01;;;;;;;8.55;2.40;;;10.70;69.00;;;;;;4861335;29;20073;-88
2023/06/13 02:04:28;;;;;;;6.10;2.30;;;10.60;68.90;;;;;;4861159;29;20572;-88
2023/06/13 02:06:55;;;;;;;7.28;2.35;;;10.70;69.00;;;;;;4846034;29;20136;-89
2023/06/13 02:09:22;;;;;;;6.10;2.60;;;10.70;68.90;;;;;;4846122;29;20053;-88
2023/06/13 02:11:49;;;;;;;6.15;2.63;;;10.70;68.70;;;;;;4845972;29;20046;-88
2023/06/13 02:14:17;;;;;;;5.80;2.42;;;10.70;68.60;;;;;;4860980;29;20591;-89
2023/06/13 02:16:44;;;;;;;6.00;2.57;;;10.70;68.70;;;;;;4845399;29;20053;-88
2023/06/13 02:19:13;;;;;;;6.22;2.78;;;10.60;69.00;;;;;;4845152;29;20049;-88
2023/06/13 02:21:45;;;;;;;5.05;2.40;;;10.50;69.10;;;;;;4845157;29;20046;-88
2023/06/13 02:24:14;;;;;;;7.45;2.40;;;10.50;69.40;;;;;;4845767;29;20053;-89
2023/06/13 02:26:42;;;;;;;7.00;3.42;;;10.40;69.30;;;;;;4845705;29;20055;-88
2023/06/13 02:29:09;;;;;;;5.67;2.20;;;10.50;69.30;;;;;;4845893;29;20152;-88
2023/06/13 02:31:38;;;;;;;5.85;2.13;;;10.50;69.20;;;;;;4845754;29;20053;-88
2023/06/13 02:34:05;;;;;;;5.55;2.20;;;10.50;69.40;;;;;;4842648;29;20066;-89
2023/06/13 02:36:32;;;;;;;6.03;2.53;;;10.40;69.30;;;;;;4845544;29;20102;-88
2023/06/13 02:39:02;;;;;;;6.38;2.88;;;10.40;69.50;;;;;;4859756;29;20500;-87
2023/06/13 02:41:30;;;;;;;6.93;2.33;;;10.40;69.50;;;;;;4845863;29;20098;-88
2023/06/13 02:43:57;;;;;;;6.05;2.50;;;10.40;69.10;;;;;;4836613;29;20046;-87
2023/06/13 02:46:24;;;;;;;6.22;2.90;;;10.40;69.60;;;;;;4848495;29;20048;-88
2023/06/13 02:48:51;;;;;;;6.00;2.35;;;10.30;69.80;;;;;;4863980;29;20124;-88
2023/06/13 02:51:19;;;;;;;6.15;2.50;;;10.20;70.20;;;;;;4845616;29;20050;-88
2023/06/13 02:53:46;;;;;;;7.53;2.67;;;10.10;70.40;;;;;;4842928;29;20059;-87
2023/06/13 02:56:13;;;;;;;7.65;2.50;;;10.00;70.50;;;;;;4860389;29;20069;-88
2023/06/13 02:58:40;;;;;;;7.28;2.72;;;10.00;70.70;;;;;;4845298;29;20050;-88
2023/06/13 03:01:08;;;;;;;7.65;2.60;;;9.90;70.90;;;;;;4851550;29;20381;-87
2023/06/13 03:03:35;;;;;;;7.53;2.50;;;9.90;71.10;;;;;;4847609;29;20054;-88
2023/06/13 03:06:04;;;;;;;7.10;2.90;;;9.90;70.90;;;;;;4848904;29;20049;-87
2023/06/13 03:08:36;;;;;;;7.25;2.70;;;9.80;71.10;;;;;;4848932;29;20053;-87
2023/06/13 03:11:04;;;;;;;9.40;2.78;;;9.80;71.30;;;;;;4863328;29;20049;-87
2023/06/13 03:13:31;;;;;;;7.18;2.78;;;9.90;71.50;;;;;;4848449;29;20073;-87
2023/06/13 03:16:01;;;;;;;7.72;2.90;;;9.90;71.50;;;;;;4848001;29;20432;-87
2023/06/13 03:18:30;;;;;;;6.87;2.50;;;9.90;71.50;;;;;;4863686;29;20045;-87
2023/06/13 03:20:57;;;;;;;8.02;2.75;;;9.90;71.20;;;;;;4862737;29;20048;-88
2023/06/13 03:23:25;;;;;;;6.70;2.47;;;9.90;71.20;;;;;;4856761;29;20101;-88
2023/06/13 03:25:53;;;;;;;5.40;2.47;;;10.00;71.20;;;;;;4863157;29;20057;-88
2023/06/13 03:28:20;;;;;;;6.65;2.40;;;10.00;71.20;;;;;;4847667;29;20055;-88
2023/06/13 03:30:51;;;;;;;6.83;2.37;;;10.10;71.10;;;;;;4844960;29;20072;-88
2023/06/13 03:33:20;;;;;;;6.28;2.45;;;10.20;71.00;;;;;;4849388;29;20053;-88
2023/06/13 03:35:48;;;;;;;6.55;2.75;;;10.20;70.90;;;;;;4850960;29;20048;-88
2023/06/13 03:38:19;;;;;;;6.15;2.30;;;10.20;70.70;;;;;;4850415;29;20575;-88
2023/06/13 03:40:47;;;;;;;6.38;2.20;;;10.30;70.70;;;;;;4851135;29;20049;-88
2023/06/13 03:43:14;;;;;;;6.70;2.40;;;10.30;70.70;;;;;;4863672;29;20041;-87
2023/06/13 03:45:41;;;;;;;6.75;2.40;;;10.30;70.90;;;;;;4862383;29;20411;-87
2023/06/13 03:48:08;;;;;;;7.38;2.75;;;10.40;70.60;;;;;;4847324;29;20079;-88
2023/06/13 03:50:35;;;;;;;5.72;2.28;;;10.40;70.90;;;;;;4862348;29;20266;-87
2023/06/13 03:53:02;;;;;;;6.88;2.50;;;10.40;71.50;;;;;;4844319;29;20049;-86
2023/06/13 03:55:31;;;;;;;5.73;2.67;;;10.50;71.60;;;;;;4860784;29;20049;-88
2023/06/13 03:57:59;;;;;;;6.15;2.60;;;10.50;71.50;;;;;;4847673;29;20081;-88
2023/06/13 04:00:26;;;;;;;6.95;2.22;;;10.70;71.60;;;;;;4865197;29;20053;-88
2023/06/13 04:02:53;;;;;;;6.03;2.67;;;10.80;71.00;;;;;;4847758;29;20428;-88
2023/06/13 04:05:21;;;;;;;6.68;2.70;;;10.80;71.20;;;;;;4847527;29;20049;-88
2023/06/13 04:07:53;;;;;;;6.10;2.80;;;10.80;71.40;;;;;;4866301;29;20047;-88
2023/06/13 04:10:21;;;;;;;5.45;2.42;;;10.80;71.60;;;;;;4862752;29;20052;-88
2023/06/13 04:12:48;;;;;;;8.07;2.70;;;10.90;71.90;;;;;;4862926;29;20060;-88
2023/06/13 04:15:15;;;;;;;6.25;2.90;;;10.90;71.10;;;;;;4863627;29;20093;-88
2023/06/13 04:17:42;;;;;;;5.93;2.67;;;10.90;71.50;;;;;;4847574;29;20490;-88
2023/06/13 04:20:17;;;;;;;6.47;2.57;;;11.00;71.10;;;;;;4848230;29;20110;-88
2023/06/13 04:22:47;;;;;;;6.40;2.97;;;11.10;71.70;;;;;;4848326;29;20140;-88
2023/06/13 04:25:15;;;;;;;5.50;2.80;;;11.20;70.60;;;;;;4862948;29;20052;-89
2023/06/13 04:27:44;;;;;;;8.63;2.72;;;11.30;70.60;;;;;;4850618;29;20559;-88
2023/06/13 04:30:11;;;;;;;5.95;2.70;;;11.50;70.00;;;;;;4863804;29;20045;-88
2023/06/13 04:32:43;;;;;;;10.53;3.07;;;11.60;70.30;;;;;;4847533;29;20065;-88
2023/06/13 04:35:16;;;;;;;8.07;2.60;;;11.80;69.50;;;;;;4847308;29;20057;-88
2023/06/13 04:37:45;;;;;;;6.55;2.08;;;12.00;69.30;;;;;;4828715;29;20436;-88
2023/06/13 04:40:16;;;;;;;5.85;2.45;;;12.10;69.60;;;;;;4828963;29;20049;-88
2023/06/13 04:42:51;;;;;;;7.18;3.22;;;12.20;68.70;;;;;;4844052;29;20050;-89
2023/06/13 04:45:24;;;;;;;5.83;2.90;;;12.40;68.30;;;;;;4828681;29;20468;-88
2023/06/13 04:47:57;;;;;;;6.18;2.90;;;12.50;68.80;;;;;;4843778;29;20053;-88
2023/06/13 04:50:28;;;;;;;7.85;2.90;;;12.80;68.20;;;;;;4843993;29;20057;-88
2023/06/13 04:52:56;;;;;;;7.70;2.90;;;13.00;67.00;;;;;;4846767;29;20050;-89
2023/06/13 04:55:29;;;;;;;8.40;3.20;;;13.20;65.80;;;;;;4862313;29;20046;-89
2023/06/13 04:57:56;;;;;;;7.87;3.57;;;13.40;66.20;;;;;;4846885;29;20144;-88
2023/06/13 05:00:24;;;;;;;8.90;2.92;;;13.50;65.40;;;;;;4846872;29;20140;-89
2023/06/13 05:02:56;;;;;;;6.63;2.83;;;13.80;64.90;;;;;;4846785;29;20045;-89
2023/06/13 05:05:23;;;;;;;23.55;4.07;;;14.00;63.20;;;;;;4861963;29;20045;-89
2023/06/13 05:07:55;;;;;;;9.55;3.67;;;14.10;63.60;;;;;;4847186;29;20393;-88
2023/06/13 05:10:23;;;;;;;8.07;3.23;;;14.20;61.60;;;;;;4841779;29;20523;-88
2023/06/13 05:12:52;;;;;;;8.60;3.70;;;14.40;61.10;;;;;;4835054;29;20042;-88
2023/06/13 05:15:20;;;;;;;7.03;3.00;;;14.50;62.20;;;;;;4846553;29;20119;-87
2023/06/13 05:17:54;;;;;;;7.15;3.20;;;14.70;61.80;;;;;;4844748;29;20053;-87
2023/06/13 05:20:26;;;;;;;13.02;3.20;;;14.80;62.70;;;;;;4846033;29;20389;-89
2023/06/13 05:22:53;;;;;;;14.50;3.27;;;14.90;60.10;;;;;;4846357;29;20500;-89
2023/06/13 05:25:21;;;;;;;8.68;3.83;;;15.00;59.50;;;;;;4846307;29;20128;-89
2023/06/13 05:27:53;;;;;;;12.38;3.40;;;15.10;59.70;;;;;;4861473;29;20106;-89
2023/06/13 05:30:21;;;;;;;8.52;3.60;;;15.20;59.50;;;;;;4845728;29;20061;-88
2023/06/13 05:32:48;;;;;;;14.90;3.72;;;15.30;59.60;;;;;;4857856;29;20073;-89
2023/06/13 05:35:15;;;;;;;8.67;3.07;;;15.50;59.30;;;;;;4844784;29;20078;-88
2023/06/13 05:37:43;;;;;;;9.77;3.58;;;15.50;59.60;;;;;;4845112;29;20052;-89
2023/06/13 05:40:11;;;;;;;7.93;3.33;;;15.70;59.00;;;;;;4845117;29;20043;-89
2023/06/13 05:42:39;;;;;;;5.53;2.80;;;15.70;56.90;;;;;;4845585;29;20084;-88
2023/06/13 05:45:07;;;;;;;6.30;3.20;;;15.60;58.00;;;;;;4854393;29;20128;-88
2023/06/13 05:47:35;;;;;;;7.30;2.77;;;15.60;57.90;;;;;;4860731;29;20156;-88
2023/06/13 05:50:03;;;;;;;7.13;3.13;;;15.70;58.00;;;;;;4845399;29;20049;-88
2023/06/13 05:52:30;;;;;;;6.03;3.03;;;15.60;58.40;;;;;;4844212;29;20057;-89
2023/06/13 05:54:57;;;;;;;6.75;2.80;;;15.70;58.00;;;;;;4842216;29;20056;-88
2023/06/13 05:57:36;;;;;;;7.30;2.90;;;15.80;58.10;;;;;;4844933;29;20795;-89
2023/06/13 06:00:05;;;;;;;9.03;3.00;;;15.80;59.20;;;;;;4841473;29;20057;-89
2023/06/13 06:02:41;;;;;;;5.35;2.42;;;15.90;58.90;;;;;;4858457;29;20056;-89
2023/06/13 06:05:09;;;;;;;5.93;2.72;;;16.00;58.20;;;;;;4841676;29;20102;-89
2023/06/13 06:07:36;;;;;;;8.50;2.92;;;16.00;58.00;;;;;;4844451;29;20046;-88
2023/06/13 06:10:05;;;;;;;6.38;3.08;;;16.00;58.10;;;;;;4844833;29;20053;-89
2023/06/13 06:12:32;;;;;;;5.60;2.50;;;16.20;59.10;;;;;;4842771;29;20046;-89
2023/06/13 06:15:00;;;;;;;7.07;2.97;;;16.20;55.10;;;;;;4843201;29;20081;-89
2023/06/13 06:17:27;;;;;;;6.03;3.05;;;16.20;57.60;;;;;;4854471;29;20132;-89
2023/06/13 06:19:55;;;;;;;6.38;2.65;;;16.30;57.70;;;;;;4844428;29;20049;-89
2023/06/13 06:22:22;;;;;;;7.72;3.17;;;16.50;56.80;;;;;;4842230;29;20046;-89
2023/06/13 06:24:49;;;;;;;7.53;2.50;;;16.50;55.50;;;;;;4843542;29;20136;-89
2023/06/13 06:27:16;;;;;;;5.53;2.58;;;16.50;55.30;;;;;;4858330;29;20053;-89
2023/06/13 06:29:43;;;;;;;6.00;2.35;;;16.60;54.20;;;;;;4853946;29;20147;-88
2023/06/13 06:32:10;;;;;;;5.53;2.38;;;16.60;54.20;;;;;;4840174;29;20069;-89
2023/06/13 06:34:37;;;;;;;8.15;2.60;;;16.70;54.30;;;;;;4843230;29;20062;-89
2023/06/13 06:37:05;;;;;;;5.93;2.50;;;16.70;54.40;;;;;;4858840;29;20052;-89
2023/06/13 06:39:32;;;;;;;7.13;2.67;;;16.70;54.20;;;;;;4847413;29;20046;-89
2023/06/13 06:41:59;;;;;;;7.03;2.60;;;16.70;55.00;;;;;;4847669;29;20042;-89
2023/06/13 06:44:40;;;;;;;9.15;2.78;;;16.90;55.90;;;;;;4847461;29;20048;-89
2023/06/13 06:47:11;;;;;;;7.45;2.70;;;17.00;55.60;;;;;;4862562;29;20060;-89
2023/06/13 06:49:41;;;;;;;8.63;3.30;;;17.10;55.30;;;;;;4846766;29;20073;-89
2023/06/13 06:52:08;;;;;;;7.57;3.10;;;17.10;54.90;;;;;;4861361;29;20080;-89
2023/06/13 06:54:35;;;;;;;7.38;2.70;;;17.10;54.00;;;;;;4847775;29;20041;-89
2023/06/13 06:57:03;;;;;;;6.22;3.10;;;17.10;54.90;;;;;;4859656;29;20061;-89
2023/06/13 06:59:30;;;;;;;7.60;2.70;;;17.30;53.60;;;;;;4847517;29;20073;-89
2023/06/13 07:01:58;;;;;;;5.57;2.40;;;17.30;53.50;;;;;;4847918;29;20069;-89
2023/06/13 07:04:25;;;;;;;7.47;2.72;;;17.40;53.80;;;;;;4847519;29;20046;-89
2023/06/13 07:06:52;;;;;;;5.93;2.47;;;17.40;52.70;;;;;;4847948;29;20053;-89
2023/06/13 07:09:27;;;;;;;5.53;2.53;;;17.60;54.10;;;;;;4848078;29;20117;-89
2023/06/13 07:11:57;;;;;;;5.85;2.58;;;17.90;52.00;;;;;;4862148;29;20568;-89
2023/06/13 07:14:25;;;;;;;5.70;2.53;;;18.00;52.90;;;;;;4862408;29;20494;-89
2023/06/13 07:16:54;;;;;;;6.25;2.47;;;17.90;51.80;;;;;;4847932;29;20386;-89
2023/06/13 07:19:23;;;;;;;5.28;2.50;;;18.10;52.30;;;;;;4846638;29;20054;-89
2023/06/13 07:21:50;;;;;;;6.90;2.30;;;18.30;51.20;;;;;;4844580;29;20136;-89
2023/06/13 07:24:17;;;;;;;6.18;2.25;;;18.50;50.90;;;;;;4846351;29;20053;-89
2023/06/13 07:26:45;;;;;;;5.40;2.10;;;18.40;50.30;;;;;;4846262;29;20078;-89
2023/06/13 07:29:12;;;;;;;4.70;2.10;;;18.50;48.90;;;;;;4862496;29;20057;-89
2023/06/13 07:31:39;;;;;;;5.20;2.00;;;18.20;49.00;;;;;;4840492;29;20080;-89
2023/06/13 07:34:06;;;;;;;8.57;2.53;;;18.30;49.80;;;;;;4847633;29;20832;-89
2023/06/13 07:36:54;;;;;;;5.75;2.17;;;18.30;47.60;;;;;;4862667;29;20457;-90
2023/06/13 07:39:21;;;;;;;5.70;2.20;;;18.20;48.70;;;;;;4847397;29;20135;-89
2023/06/13 07:41:49;;;;;;;5.45;2.13;;;18.00;48.50;;;;;;4862775;29;20078;-89
2023/06/13 07:44:17;;;;;;;4.93;2.15;;;18.00;49.30;;;;;;4843398;29;20045;-89
2023/06/13 07:46:45;;;;;;;5.93;2.60;;;18.10;49.50;;;;;;4847026;29;20061;-89
2023/06/13 07:49:12;;;;;;;5.43;2.30;;;18.20;49.30;;;;;;4862045;29;20404;-90
2023/06/13 07:51:39;;;;;;;7.17;2.33;;;18.50;49.20;;;;;;4860134;29;20065;-89
2023/06/13 07:54:06;;;;;;;5.65;2.58;;;18.50;48.20;;;;;;4846992;29;20132;-89
2023/06/13 07:56:33;;;;;;;6.93;2.08;;;18.40;48.40;;;;;;4844271;29;20137;-90
2023/06/13 07:59:01;;;;;;;10.27;3.05;;;18.50;48.30;;;;;;4845792;29;20049;-89
2023/06/13 08:01:28;;;;;;;6.97;2.05;;;18.60;47.30;;;;;;4858168;29;20046;-89
2023/06/13 08:03:55;;;;;;;6.33;2.40;;;18.60;48.30;;;;;;4846720;29;20046;-89
2023/06/13 08:06:22;;;;;;;5.80;2.30;;;18.80;50.20;;;;;;4842857;29;20045;-90
2023/06/13 08:08:49;;;;;;;4.25;1.55;;;18.60;47.70;;;;;;4841487;29;20038;-89
2023/06/13 08:11:16;;;;;;;5.35;2.20;;;18.60;47.10;;;;;;4841648;29;20049;-89
2023/06/13 08:13:43;;;;;;;6.13;2.03;;;18.60;46.70;;;;;;4846183;29;20045;-90
2023/06/13 08:16:11;;;;;;;5.63;2.17;;;18.60;47.10;;;;;;4858911;29;20519;-89
2023/06/13 08:18:38;;;;;;;4.45;1.80;;;18.50;47.60;;;;;;4861125;29;20049;-89
2023/06/13 08:21:06;;;;;;;5.57;2.22;;;18.50;45.70;;;;;;4845403;29;20136;-89
2023/06/13 08:23:33;;;;;;;4.22;1.90;;;18.50;44.90;;;;;;4845386;29;20041;-90
2023/06/13 08:26:00;;;;;;;8.20;2.30;;;18.30;47.10;;;;;;4843434;29;20484;-89
2023/06/13 08:28:27;;;;;;;5.03;1.83;;;18.20;46.90;;;;;;4846149;29;20049;-89
2023/06/13 08:30:54;;;;;;;6.10;1.80;;;18.30;46.90;;;;;;4844972;29;20045;-90
2023/06/13 08:33:42;;;;;;;6.05;2.30;;;18.40;47.70;;;;;;4847861;29;20102;-89
2023/06/13 08:36:29;;;;;;;5.13;2.20;;;18.70;48.70;;;;;;4849037;29;20050;-89
2023/06/13 08:38:59;;;;;;;5.03;2.22;;;18.90;46.40;;;;;;4841111;29;20500;-89
2023/06/13 08:41:28;;;;;;;4.83;2.20;;;19.10;46.20;;;;;;4844318;29;20041;-89
2023/06/13 08:43:58;;;;;;;7.78;2.45;;;19.10;46.40;;;;;;4858857;29;20128;-89
2023/06/13 08:46:26;;;;;;;6.72;2.30;;;19.40;48.50;;;;;;4839927;29;20045;-90
2023/06/13 08:48:53;;;;;;;5.63;2.28;;;19.40;46.70;;;;;;4845966;29;20046;-88
2023/06/13 08:51:41;;;;;;;5.13;2.17;;;19.50;47.40;;;;;;4856918;29;20049;-90
2023/06/13 08:54:12;;;;;;;5.40;2.40;;;19.50;46.00;;;;;;4844197;29;20061;-90
2023/06/13 08:56:40;;;;;;;5.35;2.00;;;19.50;45.40;;;;;;4860786;29;20046;-88
2023/06/13 08:59:30;;;;;;;6.50;2.33;;;19.50;45.90;;;;;;4845972;29;20041;-90
2023/06/13 09:01:57;;;;;;;11.55;2.63;;;19.30;45.20;;;;;;4843320;29;20136;-90
2023/06/13 09:04:27;;;;;;;7.43;2.13;;;19.40;46.20;;;;;;4845427;29;20049;-90
2023/06/13 09:06:58;;;;;;;6.10;2.53;;;19.50;46.60;;;;;;4851992;29;20110;-89
2023/06/13 09:09:27;;;;;;;6.15;2.75;;;19.70;48.70;;;;;;4845487;29;20056;-89
2023/06/13 09:11:55;;;;;;;5.72;2.20;;;19.60;47.30;;;;;;4859621;29;20083;-89
2023/06/13 09:14:22;;;;;;;6.85;2.60;;;19.70;48.20;;;;;;4860692;29;20386;-90
2023/06/13 09:16:53;;;;;;;5.80;2.10;;;19.90;46.40;;;;;;4843645;29;20053;-89
2023/06/13 09:19:20;;;;;;;7.20;2.70;;;19.80;45.90;;;;;;4847539;29;20056;-89
2023/06/13 09:21:47;;;;;;;7.25;2.70;;;19.70;45.90;;;;;;4842250;29;20057;-90
2023/06/13 09:24:15;;;;;;;8.00;2.67;;;19.60;46.40;;;;;;4858864;29;20045;-89
2023/06/13 09:26:44;;;;;;;5.13;2.35;;;19.60;45.80;;;;;;4844155;29;20116;-90
2023/06/13 09:29:11;;;;;;;7.68;2.33;;;19.60;47.50;;;;;;4844309;29;20136;-90
2023/06/13 09:32:03;;;;;;;4.83;2.23;;;19.90;47.60;;;;;;4839875;29;20049;-89
2023/06/13 09:34:30;;;;;;;6.22;2.85;;;19.70;47.90;;;;;;4842546;29;20572;-90
2023/06/13 09:36:58;;;;;;;6.50;3.10;;;19.50;47.80;;;;;;4844802;29;20830;-90
2023/06/13 09:39:27;;;;;;;6.75;2.95;;;19.50;48.70;;;;;;4845089;29;20041;-90
2023/06/13 09:41:57;;;;;;;8.43;3.60;;;19.70;49.80;;;;;;4840204;29;20072;-90
2023/06/13 09:44:25;;;;;;;7.77;3.10;;;20.00;49.20;;;;;;4843617;29;20495;-90
2023/06/13 09:46:53;;;;;;;8.25;3.00;;;19.80;46.60;;;;;;4839727;29;20053;-89
2023/06/13 09:49:21;;;;;;;6.15;2.80;;;19.60;49.40;;;;;;4844769;29;20054;-89
2023/06/13 09:51:51;;;;;;;9.15;2.90;;;19.10;47.60;;;;;;4858720;29;20049;-89
2023/06/13 09:54:18;;;;;;;7.32;2.88;;;19.10;47.50;;;;;;4844552;29;20049;-89
2023/06/13 09:56:45;;;;;;;6.23;2.80;;;19.10;48.40;;;;;;4841584;29;20129;-90
2023/06/13 09:59:19;;;;;;;7.38;3.45;;;19.40;48.80;;;;;;4841432;29;20564;-90
2023/06/13 10:01:49;;;;;;;6.63;3.22;;;19.60;48.00;;;;;;4858285;29;20141;-90
2023/06/13 10:04:16;;;;;;;7.72;3.00;;;19.30;48.50;;;;;;4844347;29;20093;-89
2023/06/13 10:06:43;;;;;;;7.60;3.50;;;19.30;49.20;;;;;;4844202;29;20132;-90
2023/06/13 10:09:19;;;;;;;5.90;3.00;;;19.50;50.10;;;;;;4859674;29;20081;-90
2023/06/13 10:11:51;;;;;;;8.35;2.97;;;20.00;49.40;;;;;;4844673;29;20514;-90
2023/06/13 10:14:22;;;;;;;6.75;3.22;;;20.10;49.50;;;;;;4848612;29;20584;-90
2023/06/13 10:16:58;;;;;;;7.35;2.78;;;20.10;47.50;;;;;;4847662;29;20052;-90
2023/06/13 10:19:40;;;;;;;7.00;3.30;;;20.00;48.00;;;;;;4849287;29;20069;-89
2023/06/13 10:22:09;;;;;;;7.53;3.10;;;20.10;49.40;;;;;;4844868;29;20044;-90
2023/06/13 10:24:44;;;;;;;7.22;3.30;;;20.60;49.30;;;;;;4848317;29;20049;-90
2023/06/13 10:27:30;;;;;;;6.50;3.22;;;20.80;46.40;;;;;;4848074;29;20054;-90
2023/06/13 10:33:35;;;;;;;7.25;3.78;;;19.90;46.40;;;;;;4860147;29;20564;-89
2023/06/13 10:36:24;;;;;;;7.93;3.30;;;19.30;47.90;;;;;;4864026;29;20498;-89
2023/06/13 10:39:13;;;;;;;7.82;3.63;;;19.60;50.30;;;;;;4859574;29;20523;-89
2023/06/13 10:41:40;;;;;;;8.02;3.30;;;20.10;49.90;;;;;;4857538;29;20140;-90
2023/06/13 10:44:35;;;;;;;7.65;3.67;;;20.30;47.30;;;;;;4847219;29;20060;-90
2023/06/13 10:47:05;;;;;;;6.25;3.00;;;20.10;46.60;;;;;;4864131;29;20041;-89
2023/06/13 10:49:40;;;;;;;7.57;3.33;;;19.90;47.70;;;;;;4846979;29;20056;-89
2023/06/13 10:52:13;;;;;;;7.32;3.20;;;20.10;48.30;;;;;;4863355;29;20070;-89
2023/06/13 10:54:40;;;;;;;8.70;3.45;;;20.00;45.50;;;;;;4864494;29;20041;-89
2023/06/13 10:57:08;;;;;;;7.35;3.25;;;20.00;46.00;;;;;;4848400;29;20059;-89
2023/06/13 10:59:37;;;;;;;7.68;3.20;;;19.70;48.10;;;;;;4850843;29;20522;-90
2023/06/13 11:02:08;;;;;;;7.23;3.20;;;19.80;47.00;;;;;;4850320;29;20403;-89
2023/06/13 11:04:40;;;;;;;9.15;3.38;;;20.10;48.10;;;;;;4862858;29;20073;-89
2023/06/13 11:07:25;;;;;;;7.25;3.30;;;20.60;46.40;;;;;;4863500;29;20056;-89
2023/06/13 11:10:12;;;;;;;7.95;3.30;;;20.80;45.70;;;;;;4861279;29;20041;-90
2023/06/13 11:12:43;;;;;;;6.65;3.20;;;20.60;46.10;;;;;;4849715;29;20094;-89
2023/06/13 11:15:24;;;;;;;7.13;3.30;;;20.90;46.80;;;;;;4848216;29;20045;-89
2023/06/13 11:18:07;;;;;;;7.30;3.28;;;21.10;47.90;;;;;;4861147;29;20049;-90
2023/06/13 11:20:51;;;;;;;7.45;3.47;;;21.30;44.50;;;;;;4863058;29;20068;-90
2023/06/13 11:23:22;;;;;;;7.25;3.33;;;21.20;43.60;;;;;;4864043;29;20045;-90
2023/06/13 11:25:50;;;;;;;6.57;3.13;;;20.90;44.40;;;;;;4845601;29;20450;-90
2023/06/13 11:28:18;;;;;;;6.50;3.03;;;21.00;45.90;;;;;;4849095;29;20061;-90
2023/06/13 11:30:47;;;;;;;7.93;3.42;;;21.20;44.90;;;;;;4862596;29;20048;-90
2023/06/13 11:33:17;;;;;;;6.97;3.28;;;21.50;45.50;;;;;;4850203;29;20484;-89
2023/06/13 11:35:57;;;;;;;6.25;3.03;;;21.80;45.20;;;;;;4845643;29;20159;-90
2023/06/13 11:38:33;;;;;;;7.50;3.10;;;22.00;43.60;;;;;;4848553;29;20053;-90
2023/06/13 11:41:01;;;;;;;6.37;3.13;;;21.90;45.80;;;;;;4864342;29;20132;-90
2023/06/13 11:43:28;;;;;;;6.45;3.42;;;21.80;42.90;;;;;;4847134;29;20049;-90
2023/06/13 11:46:00;;;;;;;9.48;3.15;;;21.60;46.30;;;;;;4863769;29;20045;-90
2023/06/13 11:48:27;;;;;;;8.98;3.88;;;21.50;44.50;;;;;;4846682;29;20049;-89
2023/06/13 11:51:15;;;;;;;6.93;3.60;;;21.40;42.70;;;;;;4849914;29;20049;-90
2023/06/13 11:53:54;;;;;;;9.97;3.33;;;21.30;43.30;;;;;;4848889;29;20053;-90
2023/06/13 11:56:24;;;;;;;8.60;4.10;;;21.50;44.70;;;;;;4861081;29;20132;-90
2023/06/13 11:58:53;;;;;;;8.85;3.10;;;21.30;45.30;;;;;;4863320;29;20033;-89
2023/06/13 12:01:24;;;;;;;7.55;3.33;;;21.60;46.30;;;;;;4848776;29;20057;-89
2023/06/13 12:03:56;;;;;;;6.68;3.50;;;21.80;44.80;;;;;;4848903;29;20053;-90
2023/06/13 12:06:25;;;;;;;7.77;3.23;;;21.50;44.60;;;;;;4846186;29;20462;-89
2023/06/13 12:08:53;;;;;;;7.85;3.20;;;21.10;45.00;;;;;;4848403;29;20060;-90
2023/06/13 12:11:21;;;;;;;7.25;3.03;;;21.10;45.60;;;;;;4847807;29;20125;-90
2023/06/13 12:13:57;;;;;;;8.30;3.25;;;21.00;45.40;;;;;;4862275;29;20136;-90
2023/06/13 12:16:31;;;;;;;8.27;3.60;;;21.10;46.20;;;;;;4862451;29;20496;-89
2023/06/13 12:19:00;;;;;;;5.97;2.97;;;21.10;44.40;;;;;;4860982;29;20048;-90
2023/06/13 12:21:32;;;;;;;10.38;3.28;;;21.30;44.90;;;;;;4847525;29;20045;-89
2023/06/13 12:24:01;;;;;;;7.32;3.05;;;21.50;43.80;;;;;;4847734;29;20049;-89
2023/06/13 12:26:33;;;;;;;8.35;3.03;;;21.70;44.40;;;;;;4846561;29;20085;-89
2023/06/13 12:29:07;;;;;;;7.65;3.65;;;22.00;45.20;;;;;;4854589;29;20053;-90
2023/06/13 12:31:38;;;;;;;5.70;3.10;;;21.80;43.50;;;;;;4843005;29;20056;-89
2023/06/13 12:34:16;;;;;;;7.22;3.40;;;21.50;45.50;;;;;;4841299;29;20077;-89
2023/06/13 12:36:45;;;;;;;6.25;2.70;;;21.50;47.00;;;;;;4860098;29;20075;-90
2023/06/13 12:39:17;;;;;;;9.18;2.85;;;21.70;44.90;;;;;;4845549;29;20136;-90
2023/06/13 12:41:52;;;;;;;9.48;3.13;;;22.00;45.70;;;;;;4860980;29;20049;-90
2023/06/13 12:44:21;;;;;;;6.07;3.10;;;22.00;45.60;;;;;;4845641;29;20102;-90
2023/06/13 12:46:52;;;;;;;6.95;3.20;;;22.00;41.90;;;;;;4861439;29;20056;-90
2023/06/13 12:49:21;;;;;;;7.15;3.35;;;22.00;43.30;;;;;;4859790;29;20045;-90
2023/06/13 12:51:52;;;;;;;5.50;2.90;;;22.00;42.30;;;;;;4844755;29;20049;-90
2023/06/13 12:54:21;;;;;;;5.70;2.72;;;22.10;44.70;;;;;;4845732;29;20538;-90
2023/06/13 12:56:51;;;;;;;5.60;2.70;;;21.60;43.50;;;;;;4861159;29;20561;-89
2023/06/13 12:59:27;;;;;;;7.82;2.92;;;21.10;44.70;;;;;;4859104;29;20050;-90
2023/06/13 13:01:54;;;;;;;7.05;3.17;;;21.10;46.80;;;;;;4846585;29;20080;-90
2023/06/13 13:04:31;;;;;;;8.93;3.35;;;21.60;46.10;;;;;;4846838;29;20056;-90
2023/06/13 13:06:59;;;;;;;6.35;2.83;;;21.80;44.20;;;;;;4846904;29;20106;-90